createdAt,value
2022-08-26T00:01:56.073Z,97755.25
2022-08-26T00:05:58.341Z,97756.94
2022-08-26T00:10:00.400Z,97754.47
2022-08-26T00:14:02.533Z,97748.91
2022-08-26T00:18:04.853Z,97754.94
2022-08-26T00:22:23.858Z,97753.25
2022-08-26T00:26:29.181Z,97759.41
2022-08-26T00:30:32.094Z,97755.72
2022-08-26T00:34:35.202Z,97757.88
2022-08-26T00:38:38.032Z,97752.47
2022-08-26T00:42:46.073Z,97749.22
2022-08-26T00:46:52.795Z,97749.47
2022-08-26T00:51:01.825Z,97747.19
2022-08-26T00:55:11.727Z,97740.59
2022-08-26T00:59:23.829Z,97743.25
2022-08-26T01:03:28.878Z,97738.41
2022-08-26T01:07:33.103Z,97740.00
2022-08-26T01:11:37.064Z,97749.78
2022-08-26T01:15:44.879Z,97740.59
2022-08-26T01:19:50.946Z,97743.03
2022-08-26T01:23:57.451Z,97743.34
2022-08-26T01:28:03.251Z,97737.00
2022-08-26T01:32:09.656Z,97737.75
2022-08-26T01:36:12.816Z,97736.31
2022-08-26T01:40:21.558Z,97735.56
2022-08-26T01:44:27.367Z,97732.22
2022-08-26T01:48:32.837Z,97737.50
2022-08-26T01:52:37.868Z,97744.25
2022-08-26T01:56:40.323Z,97748.97
2022-08-26T02:00:44.120Z,97744.50
2022-08-26T02:04:52.599Z,97744.72
2022-08-26T02:08:57.689Z,97742.78
2022-08-26T02:13:00.055Z,97747.34
2022-08-26T02:17:03.860Z,97756.25
2022-08-26T02:21:11.302Z,97756.75
2022-08-26T02:25:33.644Z,97748.34
2022-08-26T02:29:39.070Z,97747.13
2022-08-26T02:33:43.157Z,97752.31
2022-08-26T02:37:45.418Z,97751.00
2022-08-26T02:41:47.464Z,97751.59
2022-08-26T02:45:50.007Z,97755.94
2022-08-26T02:49:52.433Z,97752.59
2022-08-26T02:53:54.613Z,97752.91
2022-08-26T02:57:58.028Z,97756.34
2022-08-26T03:02:00.349Z,97747.94
2022-08-26T03:06:02.803Z,97748.16
2022-08-26T03:10:08.541Z,97742.84
2022-08-26T03:14:10.850Z,97741.25
2022-08-26T03:18:16.158Z,97740.69
2022-08-26T03:22:18.186Z,97742.22
2022-08-26T03:26:22.968Z,97737.44
2022-08-26T03:30:44.890Z,97736.75
2022-08-26T03:34:47.609Z,97733.63
2022-08-26T03:38:49.787Z,97734.34
2022-08-26T03:42:53.193Z,97735.03
2022-08-26T03:46:55.342Z,97731.41
2022-08-26T03:50:57.524Z,97735.06
2022-08-26T03:54:59.622Z,97735.66
2022-08-26T03:59:03.893Z,97736.06
2022-08-26T04:03:10.073Z,97733.19
2022-08-26T04:07:12.390Z,97734.44
2022-08-26T04:11:19.864Z,97733.09
2022-08-26T04:15:22.260Z,97732.25
2022-08-26T04:19:25.499Z,97735.88
2022-08-26T04:23:27.855Z,97734.19
2022-08-26T04:27:29.878Z,97733.09
2022-08-26T04:31:34.561Z,97730.34
2022-08-26T04:35:37.076Z,97734.44
2022-08-26T04:39:39.737Z,97726.94
2022-08-26T04:43:42.210Z,97738.72
2022-08-26T04:47:44.233Z,97741.81
2022-08-26T04:51:47.235Z,97744.66
2022-08-26T04:55:51.561Z,97749.84
2022-08-26T04:59:57.931Z,97751.13
2022-08-26T05:04:01.543Z,97745.84
2022-08-26T05:08:07.406Z,97752.66
2022-08-26T05:12:10.966Z,97757.88
2022-08-26T05:16:15.248Z,97758.66
2022-08-26T05:20:17.743Z,97751.56
2022-08-26T05:24:19.827Z,97759.31
2022-08-26T05:28:22.427Z,97760.19
2022-08-26T05:32:24.451Z,97754.66
2022-08-26T05:36:29.145Z,97766.00
2022-08-26T05:40:36.334Z,97769.47
2022-08-26T05:44:55.412Z,97769.50
2022-08-26T05:48:58.525Z,97766.50
2022-08-26T05:53:00.545Z,97764.78
2022-08-26T05:57:04.176Z,97760.53
2022-08-26T06:01:15.412Z,97766.09
2022-08-26T06:05:17.545Z,97764.81
2022-08-26T06:09:19.726Z,97760.66
2022-08-26T06:13:27.177Z,97768.59
2022-08-26T06:17:32.370Z,97760.38
2022-08-26T06:21:39.123Z,97770.34
2022-08-26T06:25:41.900Z,97767.09
2022-08-26T06:29:45.448Z,97777.59
2022-08-26T06:33:49.258Z,97765.91
2022-08-26T06:37:51.314Z,97772.69
2022-08-26T06:41:53.412Z,97778.69
2022-08-26T06:46:04.769Z,97778.94
2022-08-26T06:50:07.320Z,97785.44
2022-08-26T06:54:10.070Z,97784.25
2022-08-26T06:58:13.827Z,97782.75
2022-08-26T07:02:15.941Z,97781.38
2022-08-26T07:06:20.405Z,97786.94
2022-08-26T07:10:22.734Z,97786.47
2022-08-26T07:14:26.322Z,97778.91
2022-08-26T07:18:28.496Z,97784.47
2022-08-26T07:22:31.000Z,97779.03
2022-08-26T07:26:33.278Z,97783.38
2022-08-26T07:30:40.845Z,97780.44
2022-08-26T07:34:43.330Z,97780.66
2022-08-26T07:38:47.982Z,97785.06
2022-08-26T07:42:50.567Z,97781.16
2022-08-26T07:46:53.473Z,97784.06
2022-08-26T07:50:56.643Z,97778.94
2022-08-26T07:55:01.956Z,97776.31
2022-08-26T07:59:04.168Z,97773.47
2022-08-26T08:03:15.956Z,97776.03
2022-08-26T08:07:18.859Z,97782.31
2022-08-26T08:11:21.710Z,97774.16
2022-08-26T08:15:27.815Z,97785.06
2022-08-26T08:19:36.619Z,97772.03
2022-08-26T08:23:39.630Z,97771.88
2022-08-26T08:27:43.190Z,97770.66
2022-08-26T08:31:56.983Z,97779.72
2022-08-26T08:36:01.088Z,97777.22
2022-08-26T08:40:04.934Z,97777.91
2022-08-26T08:44:15.947Z,97782.47
2022-08-26T08:48:33.271Z,97780.28
2022-08-26T08:52:36.355Z,97772.69
2022-08-26T08:56:52.878Z,97773.72
2022-08-26T09:01:04.672Z,97778.44
2022-08-26T09:05:17.852Z,97768.84
2022-08-26T09:09:34.500Z,97773.50
2022-08-26T09:13:38.469Z,97766.25
2022-08-26T09:18:05.980Z,97757.44
2022-08-26T09:22:09.586Z,97757.97
2022-08-26T09:26:28.520Z,97755.81
2022-08-26T09:30:34.727Z,97761.13
2022-08-26T09:34:37.552Z,97767.03
2022-08-26T09:38:39.640Z,97758.19
2022-08-26T09:42:43.137Z,97756.19
2022-08-26T09:46:58.424Z,97752.50
2022-08-26T09:51:07.808Z,97746.78
2022-08-26T09:55:09.779Z,97745.28
2022-08-26T09:59:12.140Z,97742.50
2022-08-26T10:03:26.009Z,97728.19
2022-08-26T10:07:42.855Z,97727.72
2022-08-26T10:11:55.074Z,97723.19
2022-08-26T10:16:00.485Z,97717.03
2022-08-26T10:20:22.566Z,97718.03
2022-08-26T10:24:35.045Z,97712.00
2022-08-26T10:29:01.496Z,97705.31
2022-08-26T10:33:09.481Z,97704.34
2022-08-26T10:37:20.260Z,97703.69
2022-08-26T10:41:25.855Z,97692.31
2022-08-26T10:45:42.508Z,97697.72
2022-08-26T10:49:49.136Z,97694.06
2022-08-26T10:54:23.758Z,97689.03
2022-08-26T10:58:42.691Z,97691.72
2022-08-26T11:02:50.332Z,97688.78
2022-08-26T11:07:32.702Z,97682.91
2022-08-26T11:11:40.743Z,97691.03
2022-08-26T11:15:42.747Z,97673.66
2022-08-26T11:20:00.719Z,97665.25
2022-08-26T11:24:04.263Z,97680.94
2022-08-26T11:28:07.516Z,97679.91
2022-08-26T11:32:25.414Z,97667.31
2022-08-26T11:36:30.786Z,97666.75
2022-08-26T11:40:40.464Z,97660.47
2022-08-26T11:44:49.130Z,97641.75
2022-08-26T11:49:00.935Z,97637.16
2022-08-26T11:53:06.266Z,97621.91
2022-08-26T11:57:12.656Z,97633.00
2022-08-26T12:01:26.780Z,97627.03
2022-08-26T12:05:35.638Z,97615.75
2022-08-26T12:09:51.737Z,97613.28
2022-08-26T12:13:57.162Z,97602.22
2022-08-26T12:18:29.332Z,97611.38
2022-08-26T12:22:36.012Z,97622.44
2022-08-26T12:26:39.467Z,97616.19
2022-08-26T12:30:43.094Z,97614.06
2022-08-26T12:34:48.948Z,97598.63
2022-08-26T12:38:51.278Z,97601.94
2022-08-26T12:42:53.487Z,97597.06
2022-08-26T12:47:02.422Z,97599.13
2022-08-26T12:51:08.764Z,97605.91
2022-08-26T12:55:36.163Z,97603.16
2022-08-26T12:59:38.317Z,97604.38
2022-08-26T13:03:45.858Z,97616.41
2022-08-26T13:08:11.843Z,97611.75
2022-08-26T13:12:25.022Z,97624.47
2022-08-26T13:16:27.354Z,97618.13
2022-08-26T13:20:29.839Z,97628.25
2022-08-26T13:24:43.774Z,97625.53
2022-08-26T13:28:46.161Z,97635.88
2022-08-26T13:33:03.288Z,97631.88
2022-08-26T13:37:06.499Z,97649.81
2022-08-26T13:41:08.603Z,97640.50
2022-08-26T13:45:14.389Z,97618.66
2022-08-26T13:49:16.494Z,97618.75
2022-08-26T13:53:18.744Z,97628.25
2022-08-26T13:57:24.470Z,97628.56
2022-08-26T14:01:28.698Z,97619.16
2022-08-26T14:05:31.103Z,97627.03
2022-08-26T14:09:36.601Z,97617.94
2022-08-26T14:13:40.395Z,97619.09
2022-08-26T14:17:43.171Z,97623.25
2022-08-26T14:21:46.277Z,97622.59
2022-08-26T14:25:48.362Z,97614.88
2022-08-26T14:29:50.394Z,97602.53
2022-08-26T14:33:52.703Z,97605.28
2022-08-26T14:37:55.092Z,97607.06
2022-08-26T14:41:57.335Z,97602.59
2022-08-26T14:45:59.401Z,97594.91
2022-08-26T14:50:01.641Z,97593.66
2022-08-26T14:54:12.747Z,97599.38
2022-08-26T14:58:14.795Z,97596.75
2022-08-26T15:02:32.811Z,97597.81
2022-08-26T15:06:40.006Z,97603.06
2022-08-26T15:10:42.114Z,97604.91
2022-08-26T15:14:44.137Z,97607.97
2022-08-26T15:18:46.201Z,97607.31
2022-08-26T15:22:48.321Z,97621.09
2022-08-26T15:26:50.811Z,97619.75
2022-08-26T15:30:52.915Z,97607.69
2022-08-26T15:34:54.973Z,97605.03
2022-08-26T15:38:58.538Z,97621.19
2022-08-26T15:43:18.141Z,97616.72
2022-08-26T15:47:23.902Z,97616.06
2022-08-26T15:51:32.134Z,97620.09
2022-08-26T15:55:34.173Z,97625.28
2022-08-26T15:59:36.868Z,97610.19
2022-08-26T16:03:38.937Z,97611.22
2022-08-26T16:07:41.012Z,97600.47
2022-08-26T16:11:43.063Z,97593.59
2022-08-26T16:15:45.289Z,97590.38
2022-08-26T16:19:47.399Z,97593.41
2022-08-26T16:23:50.297Z,97599.78
2022-08-26T16:27:52.777Z,97605.81
2022-08-26T16:31:55.017Z,97613.88
2022-08-26T16:35:57.030Z,97619.25
2022-08-26T16:39:59.090Z,97631.66
2022-08-26T16:44:01.592Z,97640.09
2022-08-26T16:48:06.232Z,97640.41
2022-08-26T16:52:11.342Z,97647.09
2022-08-26T16:56:19.274Z,97659.16
2022-08-26T17:00:28.040Z,97662.88
2022-08-26T17:04:31.845Z,97658.50
2022-08-26T17:08:33.889Z,97677.91
2022-08-26T17:12:36.944Z,97675.19
2022-08-26T17:16:39.588Z,97667.72
2022-08-26T17:20:45.117Z,97679.59
2022-08-26T17:24:47.209Z,97681.03
2022-08-26T17:28:50.375Z,97687.44
2022-08-26T17:32:52.841Z,97682.25
2022-08-26T17:36:54.877Z,97691.56
2022-08-26T17:40:57.475Z,97693.63
2022-08-26T17:44:59.602Z,97691.22
2022-08-26T17:49:02.028Z,97688.00
2022-08-26T17:53:04.100Z,97696.81
2022-08-26T17:57:06.116Z,97693.75
2022-08-26T18:01:13.038Z,97701.72
2022-08-26T18:05:17.391Z,97704.88
2022-08-26T18:09:19.447Z,97703.28
2022-08-26T18:13:21.738Z,97701.81
2022-08-26T18:17:23.795Z,97703.56
2022-08-26T18:21:27.371Z,97711.06
2022-08-26T18:25:29.421Z,97710.94
2022-08-26T18:29:31.458Z,97712.97
2022-08-26T18:33:33.500Z,97709.38
2022-08-26T18:37:35.586Z,97714.59
2022-08-26T18:41:48.855Z,97716.03
2022-08-26T18:46:01.482Z,97721.94
2022-08-26T18:50:04.894Z,97723.94
2022-08-26T18:54:07.889Z,97725.75
2022-08-26T18:58:10.112Z,97731.25
2022-08-26T19:02:13.239Z,97710.16
2022-08-26T19:06:21.854Z,97718.75
2022-08-26T19:10:24.866Z,97713.72
2022-08-26T19:14:27.380Z,97713.00
2022-08-26T19:18:30.001Z,97721.47
2022-08-26T19:22:32.109Z,97725.41
2022-08-26T19:26:34.334Z,97736.25
2022-08-26T19:30:42.227Z,97733.84
2022-08-26T19:34:44.491Z,97748.19
2022-08-26T19:38:46.612Z,97755.22
2022-08-26T19:42:49.497Z,97755.53
2022-08-26T19:46:51.545Z,97761.41
2022-08-26T19:50:53.650Z,97760.03
2022-08-26T19:54:57.251Z,97757.66
2022-08-26T19:58:59.299Z,97761.59
2022-08-26T20:03:02.209Z,97770.03
2022-08-26T20:07:05.560Z,97772.69
2022-08-26T20:11:12.181Z,97761.41
2022-08-26T20:15:14.904Z,97754.53
2022-08-26T20:19:37.659Z,97756.78
2022-08-26T20:23:40.573Z,97753.28
2022-08-26T20:27:42.902Z,97755.25
2022-08-26T20:31:46.233Z,97762.25
2022-08-26T20:35:48.342Z,97761.16
2022-08-26T20:39:50.421Z,97769.44
2022-08-26T20:43:53.553Z,97770.00
2022-08-26T20:47:55.646Z,97779.94
2022-08-26T20:51:58.309Z,97787.97
2022-08-26T20:56:06.109Z,97784.47
2022-08-26T21:00:09.054Z,97784.19
2022-08-26T21:04:14.224Z,97789.38
2022-08-26T21:08:16.392Z,97788.22
2022-08-26T21:12:18.439Z,97789.66
2022-08-26T21:16:20.884Z,97790.63
2022-08-26T21:20:23.813Z,97802.25
2022-08-26T21:24:26.050Z,97792.00
2022-08-26T21:28:28.583Z,97802.38
2022-08-26T21:32:31.610Z,97796.63
2022-08-26T21:36:33.679Z,97800.09
2022-08-26T21:40:35.738Z,97798.81
2022-08-26T21:44:37.754Z,97807.91
2022-08-26T21:48:49.913Z,97807.34
2022-08-26T21:52:52.508Z,97804.81
2022-08-26T21:56:54.577Z,97811.28
2022-08-26T22:00:56.712Z,97814.91
2022-08-26T22:04:58.771Z,97809.00
2022-08-26T22:09:01.101Z,97807.59
2022-08-26T22:13:03.190Z,97808.84
2022-08-26T22:17:06.048Z,97803.63
2022-08-26T22:21:10.853Z,97812.75
2022-08-26T22:25:12.977Z,97803.59
2022-08-26T22:29:15.974Z,97811.88
2022-08-26T22:33:18.409Z,97817.44
2022-08-26T22:37:20.455Z,97811.41
2022-08-26T22:41:23.417Z,97809.72
2022-08-26T22:45:25.689Z,97820.50
2022-08-26T22:49:28.412Z,97815.44
2022-08-26T22:53:30.962Z,97813.06
2022-08-26T22:57:37.926Z,97811.25
2022-08-26T23:01:42.357Z,97814.75
2022-08-26T23:05:44.795Z,97820.09
2022-08-26T23:09:47.983Z,97816.81
2022-08-26T23:13:50.126Z,97811.03
2022-08-26T23:17:58.384Z,97813.84
2022-08-26T23:22:01.686Z,97815.78
2022-08-26T23:26:06.304Z,97815.78
2022-08-26T23:30:16.077Z,97818.06
2022-08-26T23:34:36.887Z,97815.00
2022-08-26T23:38:38.972Z,97825.09
2022-08-26T23:42:42.861Z,97810.47
2022-08-26T23:46:45.095Z,97820.53
2022-08-26T23:51:05.492Z,97813.06
2022-08-26T23:55:07.845Z,97806.31
2022-08-26T23:59:09.906Z,97805.13
